Latest Weather Observations for Moruya Airport

IDN60901

Issued at 10:31 am EDT Monday 27 February 2017 (issued every 10 minutes, with the page automatically refreshed every 10 minutes)

About weather observations | Map of Canberra area stations | Latest observations for Canberra area | Other Formats
Station Details ID: 069148 Name: MORUYA AIRPORT AWS Lat: -35.90 Lon: 150.14 Height: 4.0 m
Data from the previous 72 hours. | See also: Recent months at Moruya Airport
Date/Time
EDT
Temp
°C
App
Temp
°C
Dew
Point
°C
Rel
Hum
%
Delta-T
°C
Wind Press
QNH
hPa
Press
MSL
hPa
Rain since
9am
mm
Dir  Spd
km/h
Gust
km/h
Spd
kts
Gust
kts
27/10:30am 19.5 20.0 16.5 83 1.8 WSW 9 13 5 7 1026.6 1026.5 0.0
27/10:00am 18.9 19.6 17.0 89 1.1 WSW 9 13 5 7 1026.5 1026.4 0.0
27/09:30am 17.9 18.3 16.4 91 0.9 WSW 9 13 5 7 1026.4 1026.3 0.0
27/09:00am 17.1 17.4 16.0 93 0.6 W 9 13 5 7 1026.1 1026.0 1.2
27/08:30am 16.5 16.6 15.5 94 0.6 WSW 9 13 5 7 1026.0 1025.9 1.2
27/08:00am 15.9 15.8 14.9 94 0.6 WSW 9 13 5 7 1025.9 1025.8 1.2
27/07:48am 15.8 16.0 14.8 94 0.6 WSW 7 11 4 6 1025.8 1025.7 1.2
27/07:30am 15.6 15.8 14.6 94 0.6 WSW 7 11 4 6 1025.6 1025.5 1.2
27/07:20am 15.6 15.4 14.6 94 0.6 WSW 9 11 5 6 1025.5 1025.4 1.0
27/07:00am 15.5 15.6 14.4 93 0.6 WSW 7 11 4 6 1025.3 1025.2 1.0
27/06:30am 15.5 15.6 14.5 94 0.6 WSW 7 9 4 5 1024.9 1024.8 1.0
27/06:00am 15.6 16.3 14.6 94 0.6 W 4 13 2 7 1024.6 1024.5 1.0
27/05:53am 15.5 16.9 14.5 94 0.6 CALM 0 7 0 4 1024.6 1024.5 1.0
27/05:30am 15.4 14.3 14.4 94 0.6 WSW 13 17 7 9 1024.4 1024.3 1.0
27/05:18am 15.5 14.8 14.4 93 0.6 WSW 11 19 6 10 1024.2 1024.1 1.0
27/05:17am 15.4 14.7 14.3 93 0.6 WSW 11 15 6 8 1024.2 1024.1 1.0
27/05:00am 15.4 15.4 14.3 93 0.6 WSW 7 11 4 6 1024.2 1024.1 1.0
27/04:52am 15.4 15.1 14.3 93 0.6 WSW 9 11 5 6 1024.2 1024.1 1.0
27/04:48am 15.4 15.1 14.3 93 0.6 WSW 9 13 5 7 1024.1 1024.0 1.0
27/04:30am 15.3 14.6 14.2 93 0.6 WSW 11 17 6 9 1024.2 1024.1 0.8
27/04:07am 15.2 14.8 14.1 93 0.6 WSW 9 15 5 8 1024.2 1024.1 0.8
27/04:06am 15.2 14.8 14.1 93 0.6 WSW 9 15 5 8 1024.2 1024.1 0.8
27/04:02am 15.2 14.4 14.1 93 0.6 WSW 11 19 6 10 1024.2 1024.1 0.8
27/04:00am 15.2 14.0 14.1 93 0.6 WSW 13 19 7 10 1024.2 1024.1 0.8
27/03:30am 15.3 15.2 14.0 92 0.7 WSW 7 11 4 6 1024.4 1024.3 0.6
27/03:19am 15.4 14.9 13.9 91 0.8 W 9 15 5 8 1024.5 1024.4 0.4
27/03:11am 15.5 14.7 14.0 91 0.8 WSW 11 19 6 10 1024.6 1024.5 0.4
27/03:00am 15.6 14.4 14.1 91 0.8 WSW 13 20 7 11 1024.6 1024.5 0.2
27/02:49am 15.6 14.4 14.0 90 0.9 WSW 13 19 7 10 1024.6 1024.5 0.2
27/02:47am 15.6 14.8 14.0 90 0.9 WSW 11 17 6 9 1024.7 1024.6 0.2
27/02:35am 15.5 15.0 13.7 89 1.0 WSW 9 13 5 7 1024.7 1024.6 0.2
27/02:33am 15.4 14.8 13.4 88 1.1 WSW 9 13 5 7 1024.7 1024.6 0.2
27/02:30am 15.4 14.8 13.4 88 1.1 WSW 9 13 5 7 1024.7 1024.6 0.2
27/02:10am 15.4 14.7 13.2 87 1.2 WSW 9 13 5 7 1024.8 1024.7 0.2
27/02:00am 15.6 14.9 13.3 86 1.3 WSW 9 11 5 6 1024.9 1024.8 0.2
27/01:51am 15.8 15.4 12.9 83 1.6 WSW 7 9 4 5 1024.9 1024.8 0.0
27/01:30am 16.6 16.2 12.4 76 2.3 WSW 6 9 3 5 1025.1 1025.0 0.0
27/01:00am 16.4 15.8 11.8 74 2.5 W 6 9 3 5 1025.0 1024.9 0.0
27/12:30am 16.8 15.2 11.7 72 2.8 WSW 11 15 6 8 1025.0 1024.9 0.0
27/12:00am 16.8 14.9 11.9 73 2.7 WSW 13 17 7 9 1025.1 1025.0 0.0
 
Date/Time
EDT
Temp
°C
App
Temp
°C
Dew
Point
°C
Rel
Hum
%
Delta-T
°C
Wind Press
QNH
hPa
Press
MSL
hPa
Rain since
9am
mm
Dir  Spd
km/h
Gust
km/h
Spd
kts
Gust
kts
26/11:56pm 16.6 15.1 12.0 74 2.5 WSW 11 17 6 9 1025.0 1024.9 0.0
26/11:46pm 16.1 15.0 11.9 76 2.3 W 9 15 5 8 1025.1 1025.0 0.0
26/11:30pm 16.4 14.5 11.8 74 2.5 W 13 17 7 9 1025.2 1025.1 0.0
26/11:00pm 16.4 14.9 11.8 74 2.5 WSW 11 15 6 8 1025.3 1025.2 0.0
26/10:30pm 16.2 14.7 11.8 75 2.4 W 11 15 6 8 1025.5 1025.4 0.0
26/10:00pm 16.7 15.1 11.6 72 2.8 WSW 11 13 6 7 1025.5 1025.4 0.0
26/09:30pm 17.3 15.9 12.2 72 2.8 W 11 13 6 7 1025.3 1025.2 0.0
26/09:00pm 17.4 16.3 12.1 71 2.9 WSW 9 11 5 6 1025.2 1025.1 0.0
26/08:30pm 18.0 17.0 12.2 69 3.2 SSW 9 15 5 8 1025.0 1024.9 0.0
26/08:00pm 18.8 17.5 12.5 67 3.5 S 11 17 6 9 1024.7 1024.6 0.0
26/07:30pm 19.5 17.4 12.5 64 3.9 S 15 20 8 11 1024.3 1024.2 0.0
26/07:00pm 20.4 18.1 11.9 58 4.7 SSE 15 20 8 11 1024.2 1024.1 0.0
26/06:30pm 20.9 18.4 12.3 58 4.8 SSE 17 22 9 12 1024.2 1024.1 0.0
26/06:00pm 21.3 18.4 12.4 57 5.0 SSE 19 24 10 13 1024.0 1023.9 0.0
26/05:30pm 21.6 18.7 12.2 55 5.3 SSE 19 24 10 13 1023.9 1023.8 0.0
26/05:00pm 21.7 18.5 11.4 52 5.7 SE 19 26 10 14 1023.8 1023.7 0.0
26/04:30pm 21.8 18.6 11.2 51 5.9 SE 19 24 10 13 1023.7 1023.6 0.0
26/04:00pm 22.6 19.4 11.4 49 6.2 SE 19 28 10 15 1023.8 1023.7 0.0
26/03:30pm 22.3 18.7 9.8 45 6.8 SSE 19 26 10 14 1024.0 1023.9 0.0
26/03:00pm 22.5 19.3 11.3 49 6.2 SE 19 26 10 14 1024.2 1024.1 0.0
26/02:30pm 22.2 19.1 11.6 51 5.9 SE 19 24 10 13 1024.4 1024.3 0.0
26/02:00pm 21.9 18.5 11.3 51 5.9 SE 20 30 11 16 1024.6 1024.5 0.0
26/01:30pm 22.6 19.5 12.3 52 5.8 SE 20 28 11 15 1024.6 1024.5 0.0
26/01:00pm 22.3 18.9 11.4 50 6.0 SE 20 30 11 16 1024.5 1024.4 0.0
26/12:30pm 21.5 18.2 11.5 53 5.6 SSE 20 28 11 15 1025.0 1024.9 0.0
26/12:00pm 21.4 17.8 12.0 55 5.2 SSE 22 30 12 16 1025.2 1025.1 0.0
26/11:30am 22.0 18.9 12.3 54 5.5 SSE 20 28 11 15 1025.1 1025.0 0.0
26/11:00am 22.1 19.9 13.2 57 5.1 S 17 24 9 13 1025.0 1024.9 0.0
26/10:30am 22.0 20.3 13.6 59 4.9 S 15 20 8 11 1025.1 1025.0 0.0
26/10:00am 21.1 18.8 13.0 60 4.6 S 17 22 9 12 1025.1 1025.0 0.0
26/09:30am 20.3 17.9 12.8 62 4.2 SSW 17 26 9 14 1025.1 1025.0 0.0
26/09:00am 19.1 16.7 12.8 67 3.5 SSW 17 24 9 13 1024.8 1024.7 0.0
26/08:30am 18.5 16.2 12.9 70 3.1 SW 17 24 9 13 1024.5 1024.4 0.0
26/08:00am 17.9 15.6 13.0 73 2.7 SW 17 22 9 12 1024.3 1024.2 0.0
26/07:30am 17.4 15.1 12.9 75 2.5 SW 17 22 9 12 1024.0 1023.9 0.0
26/07:00am 16.9 14.9 12.8 77 2.3 SW 15 19 8 10 1023.5 1023.4 0.0
26/06:30am 17.0 15.0 12.7 76 2.4 SW 15 19 8 10 1023.2 1023.1 0.0
26/06:00am 17.2 15.1 12.5 74 2.6 SSW 15 20 8 11 1022.9 1022.8 0.0
26/05:30am 17.4 15.8 12.7 74 2.6 SSW 13 20 7 11 1022.7 1022.6 0.0
26/05:00am 17.6 16.0 12.7 73 2.7 SSW 13 19 7 10 1022.4 1022.3 0.0
26/04:32am 17.7 16.1 12.8 73 2.7 SSW 13 19 7 10 1022.4 1022.3 0.0
26/04:30am 17.6 16.0 12.7 73 2.7 SSW 13 17 7 9 1022.4 1022.3 0.0
26/04:14am 17.7 15.7 12.6 72 2.8 SSW 15 20 8 11 1022.3 1022.2 0.0
26/04:00am 17.8 15.5 12.9 73 2.7 SW 17 20 9 11 1022.4 1022.3 0.0
26/03:30am 17.6 15.3 12.9 74 2.6 SW 17 24 9 13 1022.5 1022.4 0.0
26/03:00am 17.5 15.2 13.0 75 2.5 SW 17 20 9 11 1022.6 1022.5 0.0
26/02:32am 17.6 15.0 13.1 75 2.5 SW 19 24 10 13 1022.8 1022.7 0.0
26/02:30am 17.6 15.0 13.3 76 2.4 SW 19 22 10 12 1022.9 1022.8 0.0
26/02:14am 17.6 15.0 13.3 76 2.4 SW 19 24 10 13 1023.0 1022.9 0.0
26/02:00am 17.7 15.2 13.4 76 2.4 SW 19 22 10 12 1023.1 1023.0 0.0
26/01:30am 17.8 15.3 13.5 76 2.4 SW 19 24 10 13 1023.3 1023.2 0.0
26/01:00am 18.0 15.5 13.5 75 2.5 SW 19 24 10 13 1023.4 1023.3 0.0
26/12:30am 18.6 16.8 13.2 71 3.0 SW 15 20 8 11 1023.4 1023.3 0.0
26/12:00am 19.9 16.9 12.4 62 4.2 S 20 33 11 18 1023.5 1023.4 0.0
 
Date/Time
EDT
Temp
°C
App
Temp
°C
Dew
Point
°C
Rel
Hum
%
Delta-T
°C
Wind Press
QNH
hPa
Press
MSL
hPa
Rain since
9am
mm
Dir  Spd
km/h
Gust
km/h
Spd
kts
Gust
kts
25/11:30pm 20.1 16.9 11.8 59 4.6 S 20 32 11 17 1023.5 1023.4 0.0
25/11:00pm 19.9 16.6 12.9 64 3.9 S 22 30 12 16 1023.5 1023.4 0.0
25/10:30pm 20.1 17.1 13.6 66 3.7 SSE 22 33 12 18 1023.5 1023.4 0.0
25/10:11pm 20.0 17.1 13.9 68 3.5 SSE 22 32 12 17 1023.4 1023.3 0.0
25/10:00pm 20.2 17.3 13.9 67 3.6 SSE 22 30 12 16 1023.3 1023.2 0.0
25/09:53pm 20.2 16.9 13.9 67 3.6 SSE 24 32 13 17 1023.2 1023.1 0.0
25/09:30pm 20.2 17.8 14.3 69 3.4 SSE 20 30 11 16 1023.1 1023.0 0.0
25/09:00pm 19.9 17.5 14.5 71 3.1 SSE 20 28 11 15 1022.9 1022.8 0.0
25/08:30pm 18.6 18.0 15.7 83 1.7 SSW 13 15 7 8 1022.5 1022.4 0.0
25/08:00pm 18.2 17.4 16.0 87 1.3 SSW 15 19 8 10 1022.2 1022.1 0.0
25/07:30pm 18.2 17.0 16.0 87 1.3 SSW 17 28 9 15 1022.0 1021.9 0.0
25/07:00pm 19.6 17.6 15.5 77 2.4 S 20 28 11 15 1021.8 1021.7 0.0
25/06:49pm 19.9 18.1 15.5 76 2.6 S 19 28 10 15 1021.8 1021.7 0.0
25/06:30pm 20.1 18.9 15.1 73 2.9 S 15 24 8 13 1021.6 1021.5 0.0
25/06:00pm 20.2 19.0 15.0 72 3.0 S 15 22 8 12 1021.8 1021.7 0.0
25/05:30pm 20.2 18.1 14.8 71 3.2 SSW 19 26 10 14 1021.6 1021.5 0.0
25/05:00pm 20.4 18.7 14.7 70 3.3 S 17 28 9 15 1021.6 1021.5 0.0
25/04:30pm 20.9 18.7 15.0 69 3.5 S 20 30 11 16 1021.7 1021.6 0.0
25/04:00pm 21.2 17.8 14.8 67 3.8 SSE 26 33 14 18 1021.7 1021.6 0.0
25/03:30pm 22.0 18.9 14.4 62 4.5 SSE 24 32 13 17 1021.8 1021.7 0.0
25/03:00pm 21.9 19.0 15.0 65 4.1 SSE 24 33 13 18 1022.0 1021.9 0.0
25/02:30pm 21.3 18.1 14.2 64 4.1 SSE 24 33 13 18 1022.3 1022.2 0.0
25/02:00pm 22.0 19.1 13.9 60 4.7 SSE 22 32 12 17 1022.6 1022.5 0.0
25/01:30pm 21.5 18.9 13.2 59 4.8 SSE 19 26 10 14 1022.9 1022.8 0.0
25/01:00pm 21.0 18.0 12.7 59 4.7 SSE 20 26 11 14 1023.0 1022.9 0.0
25/12:30pm 20.7 18.6 11.1 54 5.3 SW 13 17 7 9 1023.1 1023.0 0.0
25/12:00pm 20.5 19.1 10.9 54 5.2 SSE 9 13 5 7 1023.1 1023.0 0.0
25/11:30am 19.9 18.3 10.3 54 5.2 S 9 15 5 8 1023.3 1023.2 0.0
25/11:00am 19.7 17.8 10.4 55 5.0 SW 11 17 6 9 1023.4 1023.3 0.0
25/10:30am 19.8 17.5 10.5 55 5.0 SW 13 17 7 9 1023.5 1023.4 0.0
25/10:00am 18.8 16.5 10.4 58 4.5 SW 13 19 7 10 1023.5 1023.4 0.0
25/09:30am 18.1 16.6 10.5 61 4.1 WSW 9 15 5 8 1023.5 1023.4 0.0
25/09:00am 17.6 15.3 10.5 63 3.8 SW 13 17 7 9 1023.2 1023.1 0.0
25/08:30am 17.1 15.1 10.2 64 3.7 WSW 11 17 6 9 1023.2 1023.1 0.0
25/08:00am 17.0 14.9 9.9 63 3.7 W 11 17 6 9 1022.9 1022.8 0.0
25/07:30am 16.8 15.1 9.7 63 3.7 WSW 9 13 5 7 1022.7 1022.6 0.0
25/07:00am 16.8 15.1 9.7 63 3.7 WSW 9 15 5 8 1022.6 1022.5 0.0
25/06:30am 16.8 14.4 10.0 64 3.6 SW 13 17 7 9 1022.3 1022.2 0.0
25/06:00am 17.5 14.5 9.4 59 4.2 SSW 15 20 8 11 1022.2 1022.1 0.0
25/05:30am 17.5 15.0 9.7 60 4.1 SW 13 19 7 10 1022.0 1021.9 0.0
25/05:00am 17.6 14.3 9.5 59 4.2 SW 17 20 9 11 1021.9 1021.8 0.0
25/04:30am 17.8 14.2 9.9 60 4.2 S 19 24 10 13 1021.8 1021.7 0.0
25/04:00am 18.0 14.9 10.4 61 4.0 SSW 17 22 9 12 1021.7 1021.6 0.0
25/03:30am 18.2 14.6 10.6 61 4.1 SSW 20 30 11 16 1021.7 1021.6 0.0
25/03:00am 18.3 14.9 11.1 63 3.9 S 20 28 11 15 1021.6 1021.5 0.0
25/02:30am 18.4 16.1 11.7 65 3.7 SSW 15 24 8 13 1021.8 1021.7 0.0
25/02:00am 18.5 16.0 12.3 67 3.4 S 17 22 9 12 1022.0 1021.9 0.0
25/01:30am 18.4 17.0 13.3 72 2.9 SW 13 19 7 10 1022.2 1022.1 0.0
25/01:00am 18.7 16.0 12.9 69 3.2 S 19 28 10 15 1022.4 1022.3 0.0
25/12:30am 18.6 16.4 13.2 71 3.0 S 17 24 9 13 1022.5 1022.4 0.0
25/12:00am 18.3 15.8 13.6 74 2.7 S 19 28 10 15 1022.7 1022.6 0.0
 
Date/Time
EDT
Temp
°C
App
Temp
°C
Dew
Point
°C
Rel
Hum
%
Delta-T
°C
Wind Press
QNH
hPa
Press
MSL
hPa
Rain since
9am
mm
Dir  Spd
km/h
Gust
km/h
Spd
kts
Gust
kts
24/11:30pm 18.2 15.2 13.7 75 2.6 S 22 30 12 16 1023.0 1022.9 0.0
24/11:00pm 18.9 16.2 13.5 71 3.1 SSE 20 30 11 16 1023.3 1023.2 0.0
24/10:30pm 19.1 16.3 14.4 74 2.7 SSE 22 33 12 18 1023.3 1023.2 0.0
24/10:00pm 18.8 16.1 14.7 77 2.4 SSE 22 30 12 16 1023.3 1023.2 0.0
24/09:30pm 18.7 16.2 15.2 80 2.0 SSE 22 35 12 19 1023.3 1023.2 0.0
24/09:00pm 18.4 15.7 15.5 83 1.7 SSE 24 33 13 18 1023.1 1023.0 0.0
24/08:36pm 18.2 15.6 15.8 86 1.4 S 24 39 13 21 1022.7 1022.6 0.0
24/08:30pm 18.0 14.6 15.8 87 1.3 S 28 39 15 21 1022.6 1022.5 0.0
24/08:20pm 18.3 15.1 16.3 88 1.2 S 28 39 15 21 1022.5 1022.4 0.0
24/08:00pm 18.8 15.6 16.2 85 1.5 SSE 28 37 15 20 1022.1 1022.0 0.0
24/07:30pm 19.0 15.8 16.4 85 1.6 SSE 28 37 15 20 1021.6 1021.5 0.0
24/07:00pm 20.0 17.5 16.2 79 2.3 SSE 24 33 13 18 1021.2 1021.1 0.0
24/06:30pm 20.4 17.8 16.0 76 2.6 SSE 24 32 13 17 1020.9 1020.8 0.0
24/06:00pm 20.5 18.0 16.1 76 2.6 SSE 24 33 13 18 1020.5 1020.4 0.0
24/05:30pm 20.9 19.4 16.7 77 2.5 SSE 20 28 11 15 1020.3 1020.2 0.0
24/05:00pm 21.4 19.9 16.8 75 2.8 SSE 20 30 11 16 1020.1 1020.0 0.0
24/04:30pm 21.5 20.1 16.9 75 2.8 SSE 20 28 11 15 1020.0 1019.9 0.0
24/04:00pm 22.0 20.7 17.2 74 2.9 SE 20 30 11 16 1020.0 1019.9 0.0
24/03:30pm 22.4 21.0 17.1 72 3.3 SSE 20 26 11 14 1020.0 1019.9 0.0
24/03:00pm 22.4 21.3 16.4 69 3.6 SE 17 24 9 13 1020.2 1020.1 0.0
24/02:30pm 22.7 21.2 16.3 67 3.9 SE 19 26 10 14 1020.5 1020.4 0.0
24/02:00pm 22.5 21.2 15.8 66 4.0 SSE 17 26 9 14 1020.7 1020.6 0.0
24/01:30pm 22.5 21.1 15.6 65 4.1 SE 17 22 9 12 1020.8 1020.7 0.0
24/01:00pm 23.2 22.1 16.3 65 4.2 SSE 17 22 9 12 1021.0 1020.9 0.0
24/12:30pm 22.3 20.9 15.6 66 4.0 SE 17 24 9 13 1021.5 1021.4 0.0
24/12:00pm 22.2 20.9 15.8 67 3.8 SE 17 22 9 12 1021.7 1021.6 0.0
24/11:30am 22.4 21.2 16.2 68 3.8 SSE 17 20 9 11 1021.8 1021.7 0.0
24/11:00am 21.4 20.3 15.3 68 3.6 SSE 15 20 8 11 1022.1 1022.0 0.0

Latest Capital City Observations: Canberra | Sydney | Melbourne | Brisbane | Adelaide | Perth | Hobart | Darwin

Other Formats:

Comma delimited format used in spreadsheet applications
http://www.bom.gov.au/fwo/IDN60903/IDN60903.95937.axf

JavaScript Object Notation format (JSON) in row-major order
http://www.bom.gov.au/fwo/IDN60903/IDN60903.95937.json